Time;durP1;ratioP1;P1;durP2;ratioP2;P2;SDS_P1;SDS_P2;PMS_P1;PMS_P2;Temp;Humidity;BMP_temperature;BMP_pressure;BME280_temperature;BME280_humidity;BME280_pressure;Samples;Min_cycle;Max_cycle;Signal;HPM_P1;HPM_P2
2023/03/13 00:01:57;;;;;;;53.05;13.20;;;;;;;;;;5017798;28;20033;-71
2023/03/13 00:04:22;;;;;;;45.65;12.57;;;;;;;;;;5005851;28;20080;-68
2023/03/13 00:06:50;;;;;;;50.35;11.13;;;;;;;;;;5011634;28;20446;-68
2023/03/13 00:09:18;;;;;;;41.13;10.15;;;;;;;;;;5012448;28;20049;-68
2023/03/13 00:11:44;;;;;;;47.67;12.00;;;;;;;;;;5011665;28;20062;-69
2023/03/13 00:14:14;;;;;;;35.80;12.20;;;;;;;;;;5006520;28;20550;-68
2023/03/13 00:16:39;;;;;;;50.80;13.93;;;;;;;;;;5011924;28;20476;-68
2023/03/13 00:19:06;;;;;;;43.58;11.57;;;;;;;;;;4999849;28;20049;-69
2023/03/13 00:21:31;;;;;;;44.75;12.20;;;;;;;;;;4981649;28;20030;-69
2023/03/13 00:23:58;;;;;;;40.70;10.43;;;;;;;;;;4985006;28;20335;-69
2023/03/13 00:26:24;;;;;;;44.10;13.55;;;;;;;;;;5009086;28;20156;-69
2023/03/13 00:28:50;;;;;;;44.70;13.88;;;;;;;;;;4992779;28;20042;-69
2023/03/13 00:31:19;;;;;;;59.63;20.73;;;;;;;;;;5017366;28;20533;-68
2023/03/13 00:33:46;;;;;;;37.83;12.02;;;;;;;;;;5015677;28;20129;-69
2023/03/13 00:36:12;;;;;;;34.63;11.77;;;;;;;;;;5001077;28;20072;-69
2023/03/13 00:38:38;;;;;;;39.55;14.43;;;;;;;;;;5004289;28;20072;-69
2023/03/13 00:41:03;;;;;;;41.17;12.73;;;;;;;;;;5004317;28;20042;-69
2023/03/13 00:43:31;;;;;;;36.20;11.65;;;;;;;;;;5002466;28;20030;-70
2023/03/13 00:45:59;;;;;;;27.05;11.80;;;;;;;;;;5003002;28;20431;-69
2023/03/13 00:48:24;;;;;;;25.27;11.27;;;;;;;;;;5019430;28;20033;-72
2023/03/13 00:50:50;;;;;;;35.35;14.07;;;;;;;;;;5005803;28;20034;-71
2023/03/13 00:53:15;;;;;;;41.58;16.33;;;;;;;;;;5003550;28;20049;-72
2023/03/13 00:55:51;;;;;;;29.27;11.70;;;;;;;;;;4999950;28;20040;-70
2023/03/13 00:58:18;;;;;;;36.58;17.63;;;;;;;;;;4998811;28;20467;-70
2023/03/13 01:00:44;;;;;;;32.05;17.55;;;;;;;;;;5000610;28;20034;-70
2023/03/13 01:03:12;;;;;;;36.40;16.58;;;;;;;;;;5016841;28;20129;-69
2023/03/13 01:05:39;;;;;;;33.22;18.55;;;;;;;;;;5021019;28;20541;-72
2023/03/13 01:08:04;;;;;;;28.05;15.30;;;;;;;;;;5022311;28;20121;-69
2023/03/13 01:10:30;;;;;;;34.42;17.15;;;;;;;;;;5011011;28;20038;-69
2023/03/13 01:12:57;;;;;;;23.23;12.48;;;;;;;;;;5000910;28;20125;-68
2023/03/13 01:15:23;;;;;;;25.95;12.30;;;;;;;;;;5012656;28;20558;-68
2023/03/13 01:17:48;;;;;;;25.55;12.68;;;;;;;;;;5015640;28;20098;-70
2023/03/13 01:20:13;;;;;;;25.05;12.45;;;;;;;;;;5000293;28;20042;-69
2023/03/13 01:22:39;;;;;;;25.45;12.38;;;;;;;;;;5017482;28;20474;-70
2023/03/13 01:25:04;;;;;;;25.65;12.07;;;;;;;;;;5022289;28;20069;-67
2023/03/13 01:27:30;;;;;;;30.60;12.07;;;;;;;;;;5021285;28;20036;-70
2023/03/13 01:29:55;;;;;;;34.75;12.80;;;;;;;;;;5019147;28;20042;-71
2023/03/13 01:32:20;;;;;;;29.17;12.65;;;;;;;;;;5009419;28;20034;-69
2023/03/13 01:34:46;;;;;;;37.78;14.63;;;;;;;;;;5001736;28;20044;-70
2023/03/13 01:37:11;;;;;;;33.63;14.20;;;;;;;;;;5014472;28;20029;-70
2023/03/13 01:39:36;;;;;;;30.20;14.27;;;;;;;;;;5007687;28;20501;-69
2023/03/13 01:42:02;;;;;;;27.38;14.43;;;;;;;;;;5004276;28;20034;-71
2023/03/13 01:44:27;;;;;;;34.25;15.60;;;;;;;;;;4991764;28;20415;-72
2023/03/13 01:46:53;;;;;;;33.58;14.65;;;;;;;;;;5011192;28;20064;-70
2023/03/13 01:49:20;;;;;;;27.35;14.82;;;;;;;;;;5014867;28;20033;-71
2023/03/13 01:51:58;;;;;;;33.90;17.60;;;;;;;;;;5015510;28;20174;-71
2023/03/13 01:54:28;;;;;;;33.55;16.65;;;;;;;;;;5020862;28;20029;-71
2023/03/13 01:56:59;;;;;;;40.50;17.73;;;;;;;;;;5020035;28;20026;-70
2023/03/13 01:59:30;;;;;;;33.80;18.30;;;;;;;;;;5014534;28;20030;-72
2023/03/13 02:01:57;;;;;;;37.92;17.83;;;;;;;;;;5018648;28;20048;-73
2023/03/13 02:04:28;;;;;;;37.63;17.55;;;;;;;;;;4995913;28;20042;-70
2023/03/13 02:06:55;;;;;;;34.53;17.35;;;;;;;;;;4997984;28;20046;-70
2023/03/13 02:09:23;;;;;;;35.03;17.65;;;;;;;;;;4989983;28;20113;-69
2023/03/13 02:11:51;;;;;;;45.88;16.88;;;;;;;;;;4994948;28;20480;-69
2023/03/13 02:14:20;;;;;;;36.03;16.88;;;;;;;;;;4990849;28;20103;-69
2023/03/13 02:16:47;;;;;;;40.03;17.98;;;;;;;;;;4997551;28;20119;-68
2023/03/13 02:19:36;;;;;;;35.10;17.17;;;;;;;;;;4996625;28;20046;-69
2023/03/13 02:22:04;;;;;;;29.73;15.38;;;;;;;;;;5009957;28;20042;-71
2023/03/13 02:24:40;;;;;;;34.83;16.58;;;;;;;;;;4997185;28;20930;-72
2023/03/13 02:27:05;;;;;;;37.20;16.80;;;;;;;;;;5005200;28;20025;-70
2023/03/13 02:29:33;;;;;;;35.65;16.05;;;;;;;;;;5009752;28;20034;-72
2023/03/13 02:31:58;;;;;;;37.80;15.45;;;;;;;;;;5001735;28;20419;-70
2023/03/13 02:34:26;;;;;;;38.63;15.60;;;;;;;;;;5009575;28;20471;-70
2023/03/13 02:36:52;;;;;;;36.75;14.73;;;;;;;;;;5007951;28;20764;-67
2023/03/13 02:39:22;;;;;;;36.03;14.68;;;;;;;;;;5001611;28;20057;-68
2023/03/13 02:41:47;;;;;;;40.15;14.93;;;;;;;;;;5001402;28;20109;-69
2023/03/13 02:44:13;;;;;;;37.35;14.07;;;;;;;;;;5031503;28;20080;-69
2023/03/13 02:46:53;;;;;;;38.53;14.23;;;;;;;;;;5014632;28;20034;-68
2023/03/13 02:49:19;;;;;;;40.60;15.18;;;;;;;;;;5001977;28;20088;-71
2023/03/13 02:51:45;;;;;;;42.70;14.30;;;;;;;;;;5012023;28;20037;-71
2023/03/13 02:54:16;;;;;;;38.72;13.40;;;;;;;;;;5018718;28;20060;-69
2023/03/13 02:56:42;;;;;;;41.97;13.40;;;;;;;;;;5008657;28;20536;-69
2023/03/13 02:59:07;;;;;;;44.47;13.48;;;;;;;;;;5029780;28;20163;-68
2023/03/13 03:01:33;;;;;;;52.83;14.30;;;;;;;;;;4999843;28;20117;-70
2023/03/13 03:03:58;;;;;;;45.58;13.32;;;;;;;;;;5001521;28;20026;-70
2023/03/13 03:06:23;;;;;;;56.38;15.48;;;;;;;;;;5001491;28;20117;-70
2023/03/13 03:08:51;;;;;;;49.83;14.02;;;;;;;;;;5012857;28;20091;-67
2023/03/13 03:11:16;;;;;;;54.35;14.60;;;;;;;;;;5014359;28;20137;-70
2023/03/13 03:13:42;;;;;;;51.10;14.15;;;;;;;;;;5018925;28;20073;-69
2023/03/13 03:16:10;;;;;;;46.95;13.45;;;;;;;;;;5005996;28;20033;-70
2023/03/13 03:18:40;;;;;;;49.90;13.00;;;;;;;;;;5001157;28;20446;-69
2023/03/13 03:21:06;;;;;;;42.38;13.13;;;;;;;;;;5017763;28;20032;-69
2023/03/13 03:23:32;;;;;;;39.85;11.73;;;;;;;;;;5001077;28;20071;-70
2023/03/13 03:25:58;;;;;;;42.42;11.00;;;;;;;;;;5005402;28;20037;-70
2023/03/13 03:28:23;;;;;;;37.17;9.13;;;;;;;;;;5014694;28;20360;-71
2023/03/13 03:30:48;;;;;;;41.20;9.90;;;;;;;;;;5001295;28;20036;-70
2023/03/13 03:33:16;;;;;;;36.17;9.13;;;;;;;;;;5013467;28;20038;-71
2023/03/13 03:35:44;;;;;;;42.85;9.70;;;;;;;;;;4999721;28;20042;-73
2023/03/13 03:38:09;;;;;;;46.95;10.88;;;;;;;;;;4984935;28;20105;-72
2023/03/13 03:40:37;;;;;;;35.60;9.80;;;;;;;;;;5015417;28;20052;-70
2023/03/13 03:43:02;;;;;;;41.60;9.85;;;;;;;;;;5001397;28;20045;-71
2023/03/13 03:45:27;;;;;;;37.80;9.48;;;;;;;;;;5022092;28;20371;-70
2023/03/13 03:47:53;;;;;;;46.28;9.63;;;;;;;;;;5014017;28;20084;-68
2023/03/13 03:50:20;;;;;;;46.60;9.60;;;;;;;;;;5024735;28;20552;-71
2023/03/13 03:52:45;;;;;;;41.60;10.20;;;;;;;;;;5021261;28;20041;-71
2023/03/13 03:55:11;;;;;;;47.15;9.85;;;;;;;;;;5022425;28;20041;-71
2023/03/13 03:57:36;;;;;;;43.95;9.82;;;;;;;;;;5015384;28;20042;-70
2023/03/13 04:00:01;;;;;;;40.60;9.98;;;;;;;;;;5003872;28;20469;-71
2023/03/13 04:02:27;;;;;;;45.92;10.65;;;;;;;;;;5003023;28;20144;-70
2023/03/13 04:04:54;;;;;;;49.92;10.85;;;;;;;;;;4999595;28;20034;-71
2023/03/13 04:07:19;;;;;;;45.13;10.77;;;;;;;;;;5011983;28;20090;-68
2023/03/13 04:09:47;;;;;;;54.42;12.48;;;;;;;;;;5003719;28;20041;-70
2023/03/13 04:12:12;;;;;;;56.10;11.85;;;;;;;;;;5011047;28;20033;-69
2023/03/13 04:14:40;;;;;;;50.40;11.88;;;;;;;;;;5004160;28;20172;-70
2023/03/13 04:17:05;;;;;;;62.70;11.85;;;;;;;;;;5002790;28;20026;-72
2023/03/13 04:19:33;;;;;;;52.92;11.70;;;;;;;;;;5001192;28;20037;-70
2023/03/13 04:22:00;;;;;;;46.45;11.10;;;;;;;;;;5006093;28;20048;-71
2023/03/13 04:24:28;;;;;;;44.58;10.75;;;;;;;;;;5008765;28;20033;-71
2023/03/13 04:26:56;;;;;;;55.47;11.60;;;;;;;;;;5020650;28;20055;-71
2023/03/13 04:29:24;;;;;;;49.03;11.65;;;;;;;;;;5012962;28;20870;-72
2023/03/13 04:31:49;;;;;;;53.50;13.30;;;;;;;;;;5004734;28;20130;-72
2023/03/13 04:34:15;;;;;;;50.42;13.30;;;;;;;;;;4991877;28;20057;-70
2023/03/13 04:36:40;;;;;;;39.67;11.65;;;;;;;;;;4989312;28;20038;-70
2023/03/13 04:39:05;;;;;;;61.72;13.52;;;;;;;;;;4990807;28;20038;-71
2023/03/13 04:41:31;;;;;;;66.07;14.48;;;;;;;;;;4998213;28;20040;-70
2023/03/13 04:43:56;;;;;;;52.83;12.75;;;;;;;;;;5007325;28;20034;-73
2023/03/13 04:46:21;;;;;;;49.85;12.90;;;;;;;;;;5007969;28;20108;-70
2023/03/13 04:48:47;;;;;;;44.40;12.93;;;;;;;;;;5016452;28;20037;-69
2023/03/13 04:51:14;;;;;;;53.05;12.68;;;;;;;;;;5018728;28;20116;-72
2023/03/13 04:53:42;;;;;;;44.95;12.82;;;;;;;;;;5000157;28;20029;-71
2023/03/13 04:56:08;;;;;;;46.13;12.68;;;;;;;;;;5011967;28;20031;-70
2023/03/13 04:58:33;;;;;;;46.65;12.27;;;;;;;;;;5001877;28;20049;-73
2023/03/13 05:00:58;;;;;;;41.20;10.90;;;;;;;;;;5013008;28;20064;-70
2023/03/13 05:03:23;;;;;;;49.40;12.27;;;;;;;;;;4986263;28;20061;-71
2023/03/13 05:05:51;;;;;;;47.47;13.18;;;;;;;;;;5001998;28;20046;-71
2023/03/13 05:08:18;;;;;;;50.20;12.00;;;;;;;;;;5012419;28;20042;-73
2023/03/13 05:10:46;;;;;;;45.63;11.00;;;;;;;;;;5013061;28;20036;-70
2023/03/13 05:13:11;;;;;;;44.33;12.25;;;;;;;;;;5002797;28;20034;-72
2023/03/13 05:15:37;;;;;;;50.25;11.43;;;;;;;;;;5017268;28;20124;-70
2023/03/13 05:18:04;;;;;;;45.28;10.50;;;;;;;;;;5005533;28;20041;-70
2023/03/13 05:20:29;;;;;;;43.33;10.13;;;;;;;;;;5009294;28;20060;-72
2023/03/13 05:22:55;;;;;;;47.45;12.20;;;;;;;;;;5011854;28;20758;-72
2023/03/13 05:25:20;;;;;;;45.45;10.57;;;;;;;;;;5013487;28;20336;-72
2023/03/13 05:27:48;;;;;;;44.83;11.30;;;;;;;;;;5015864;28;20038;-70
2023/03/13 05:30:13;;;;;;;48.72;10.98;;;;;;;;;;4999917;28;20026;-71
2023/03/13 05:32:39;;;;;;;48.47;10.07;;;;;;;;;;5013523;28;20033;-71
2023/03/13 05:35:04;;;;;;;40.58;9.48;;;;;;;;;;4999653;28;20042;-71
2023/03/13 05:37:29;;;;;;;52.95;11.30;;;;;;;;;;5011428;28;20702;-73
2023/03/13 05:39:54;;;;;;;44.15;9.75;;;;;;;;;;5003844;28;20029;-72
2023/03/13 05:42:20;;;;;;;39.63;9.35;;;;;;;;;;5001652;28;20085;-71
2023/03/13 05:44:45;;;;;;;42.47;9.23;;;;;;;;;;4994032;28;20046;-72
2023/03/13 05:47:10;;;;;;;44.55;9.32;;;;;;;;;;5005320;28;20038;-71
2023/03/13 05:49:36;;;;;;;42.67;8.95;;;;;;;;;;4985709;28;20207;-72
2023/03/13 05:52:01;;;;;;;49.72;9.65;;;;;;;;;;4980424;28;20103;-70
2023/03/13 05:54:28;;;;;;;44.40;8.77;;;;;;;;;;4981681;28;20043;-71
2023/03/13 05:56:56;;;;;;;40.60;8.80;;;;;;;;;;4984079;28;20041;-72
2023/03/13 05:59:21;;;;;;;46.70;9.50;;;;;;;;;;4981600;28;20042;-71
2023/03/13 06:01:49;;;;;;;47.65;9.13;;;;;;;;;;4989288;28;20127;-70
2023/03/13 06:04:17;;;;;;;49.33;9.65;;;;;;;;;;4994455;28;20041;-70
2023/03/13 06:06:47;;;;;;;52.28;10.10;;;;;;;;;;4989677;28;20034;-71
2023/03/13 06:09:12;;;;;;;47.67;9.43;;;;;;;;;;4983323;28;20041;-71
2023/03/13 06:11:37;;;;;;;53.25;10.52;;;;;;;;;;5022429;28;20030;-72
2023/03/13 06:14:03;;;;;;;50.13;10.18;;;;;;;;;;4986988;28;20064;-70
2023/03/13 06:16:28;;;;;;;61.15;11.35;;;;;;;;;;4990510;28;20053;-71
2023/03/13 06:18:53;;;;;;;55.45;9.82;;;;;;;;;;5000019;28;20042;-69
2023/03/13 06:21:18;;;;;;;51.35;11.25;;;;;;;;;;4986915;28;20495;-69
2023/03/13 06:23:44;;;;;;;56.50;12.15;;;;;;;;;;4993793;28;20038;-69
2023/03/13 06:26:09;;;;;;;52.83;10.23;;;;;;;;;;4998979;28;20038;-69
2023/03/13 06:28:35;;;;;;;68.18;12.00;;;;;;;;;;4984916;28;20044;-69
2023/03/13 06:31:04;;;;;;;54.53;11.43;;;;;;;;;;4994344;28;20037;-69
2023/03/13 06:33:29;;;;;;;64.90;12.18;;;;;;;;;;4987491;28;20037;-71
2023/03/13 06:35:55;;;;;;;48.20;9.75;;;;;;;;;;4989854;28;20038;-70
2023/03/13 06:38:20;;;;;;;48.17;10.45;;;;;;;;;;4987247;28;20057;-69
2023/03/13 06:40:45;;;;;;;40.72;8.80;;;;;;;;;;5009750;28;20574;-70
2023/03/13 06:43:11;;;;;;;51.88;10.43;;;;;;;;;;5005833;28;20042;-68
2023/03/13 06:45:39;;;;;;;40.58;9.27;;;;;;;;;;4991147;28;20065;-69
2023/03/13 06:48:06;;;;;;;51.97;10.57;;;;;;;;;;5002380;28;20108;-70
2023/03/13 06:50:32;;;;;;;40.90;9.13;;;;;;;;;;4995434;28;20098;-69
2023/03/13 06:52:57;;;;;;;62.92;11.32;;;;;;;;;;4989457;28;20034;-68
2023/03/13 06:55:23;;;;;;;54.20;11.18;;;;;;;;;;4987161;28;20038;-67
2023/03/13 06:57:51;;;;;;;64.53;11.70;;;;;;;;;;4980723;28;20056;-70
2023/03/13 07:00:17;;;;;;;47.97;10.73;;;;;;;;;;5021701;28;20498;-69
2023/03/13 07:02:43;;;;;;;54.03;11.45;;;;;;;;;;4991161;28;20050;-69
2023/03/13 07:05:08;;;;;;;48.35;10.05;;;;;;;;;;5004644;28;20091;-71
2023/03/13 07:07:34;;;;;;;52.40;10.68;;;;;;;;;;5008843;28;20049;-72
2023/03/13 07:10:01;;;;;;;51.88;11.02;;;;;;;;;;5008085;28;20034;-71
2023/03/13 07:12:27;;;;;;;51.88;10.15;;;;;;;;;;5013500;28;20091;-68
2023/03/13 07:14:52;;;;;;;52.00;11.20;;;;;;;;;;5009845;28;20038;-69
2023/03/13 07:17:17;;;;;;;53.25;10.20;;;;;;;;;;5014303;28;20092;-70
2023/03/13 07:19:43;;;;;;;52.17;11.00;;;;;;;;;;5004704;28;20041;-69
2023/03/13 07:22:08;;;;;;;62.42;12.35;;;;;;;;;;5011610;28;20030;-69
2023/03/13 07:24:33;;;;;;;56.20;11.23;;;;;;;;;;5006129;28;20030;-70
2023/03/13 07:26:58;;;;;;;59.95;10.75;;;;;;;;;;5010731;28;20030;-69
2023/03/13 07:29:24;;;;;;;67.32;11.95;;;;;;;;;;5007190;28;20409;-69
2023/03/13 07:31:51;;;;;;;51.92;11.32;;;;;;;;;;5008934;28;20099;-72
2023/03/13 07:34:16;;;;;;;47.58;10.02;;;;;;;;;;5005517;28;20108;-69
2023/03/13 07:36:42;;;;;;;47.40;10.30;;;;;;;;;;4999352;28;20042;-69
2023/03/13 07:39:08;;;;;;;47.25;10.13;;;;;;;;;;4988292;28;20494;-70
2023/03/13 07:41:33;;;;;;;46.15;9.70;;;;;;;;;;5005847;28;20402;-71
2023/03/13 07:44:01;;;;;;;44.97;9.82;;;;;;;;;;5002093;28;20065;-71
2023/03/13 07:46:26;;;;;;;40.55;9.18;;;;;;;;;;4994555;28;20402;-71
2023/03/13 07:48:52;;;;;;;43.40;8.77;;;;;;;;;;5044387;28;20033;-72
2023/03/13 07:51:24;;;;;;;45.65;9.05;;;;;;;;;;4994027;28;20038;-72
2023/03/13 07:53:50;;;;;;;46.78;9.52;;;;;;;;;;5010153;28;20037;-72
2023/03/13 07:56:16;;;;;;;46.47;8.90;;;;;;;;;;5008026;28;20103;-69
2023/03/13 07:58:42;;;;;;;50.45;9.68;;;;;;;;;;5036048;28;20045;-72
2023/03/13 08:01:08;;;;;;;48.25;9.15;;;;;;;;;;5001576;28;21775;-71
2023/03/13 08:03:36;;;;;;;43.78;9.07;;;;;;;;;;5009304;28;20832;-71
2023/03/13 08:06:04;;;;;;;46.05;7.82;;;;;;;;;;5004602;28;20041;-70
2023/03/13 08:08:29;;;;;;;45.60;9.20;;;;;;;;;;5002489;28;20061;-70
2023/03/13 08:11:01;;;;;;;50.08;9.05;;;;;;;;;;5016165;28;20137;-70
2023/03/13 08:13:26;;;;;;;41.83;8.18;;;;;;;;;;5004884;28;20042;-71
2023/03/13 08:15:51;;;;;;;37.42;8.68;;;;;;;;;;5043354;28;20042;-71
2023/03/13 08:18:17;;;;;;;39.10;8.52;;;;;;;;;;5008777;28;20050;-69
2023/03/13 08:20:42;;;;;;;44.45;8.60;;;;;;;;;;4994657;28;20050;-69
2023/03/13 08:23:07;;;;;;;41.92;8.50;;;;;;;;;;5015914;28;21277;-71
2023/03/13 08:25:33;;;;;;;41.50;7.95;;;;;;;;;;5004551;28;20041;-71
2023/03/13 08:28:00;;;;;;;43.17;8.27;;;;;;;;;;5014995;28;20112;-69
2023/03/13 08:30:28;;;;;;;35.05;7.22;;;;;;;;;;5013953;28;20131;-70
2023/03/13 08:32:53;;;;;;;41.17;7.80;;;;;;;;;;5008056;28;20072;-72
2023/03/13 08:35:19;;;;;;;42.80;8.15;;;;;;;;;;4965896;28;1129945;-69
2023/03/13 08:37:44;;;;;;;37.78;7.68;;;;;;;;;;5004426;28;20080;-71
2023/03/13 08:40:10;;;;;;;41.63;7.50;;;;;;;;;;5007051;28;20084;-70
2023/03/13 08:42:36;;;;;;;44.05;8.13;;;;;;;;;;5005170;28;20125;-71
2023/03/13 08:45:04;;;;;;;44.53;8.50;;;;;;;;;;5011626;28;20150;-71
2023/03/13 08:47:29;;;;;;;39.60;6.75;;;;;;;;;;5012940;28;20057;-72
2023/03/13 08:49:55;;;;;;;40.90;8.38;;;;;;;;;;5005429;28;20199;-70
2023/03/13 08:52:20;;;;;;;39.47;7.72;;;;;;;;;;5041027;28;20038;-72
2023/03/13 08:54:47;;;;;;;42.25;7.75;;;;;;;;;;5007509;28;20124;-72
2023/03/13 08:57:12;;;;;;;50.28;8.77;;;;;;;;;;5015068;28;20106;-72
2023/03/13 08:59:40;;;;;;;44.88;8.45;;;;;;;;;;5000825;28;20045;-72
2023/03/13 09:02:07;;;;;;;42.03;8.02;;;;;;;;;;4998929;28;20022;-72
2023/03/13 09:04:32;;;;;;;43.17;8.15;;;;;;;;;;5020084;28;20053;-73
2023/03/13 09:06:58;;;;;;;49.30;9.63;;;;;;;;;;4990237;28;20034;-71
2023/03/13 09:09:25;;;;;;;43.63;8.60;;;;;;;;;;5009517;28;20044;-73
2023/03/13 09:11:50;;;;;;;44.58;8.88;;;;;;;;;;5000913;28;20033;-73
2023/03/13 09:14:16;;;;;;;47.85;9.38;;;;;;;;;;5036123;28;20026;-72
2023/03/13 09:16:41;;;;;;;47.33;8.38;;;;;;;;;;5004743;28;20623;-72
2023/03/13 09:19:06;;;;;;;50.80;8.77;;;;;;;;;;5003343;28;20053;-71
2023/03/13 09:21:35;;;;;;;48.13;8.82;;;;;;;;;;5013028;28;20069;-70
2023/03/13 09:24:05;;;;;;;51.85;8.88;;;;;;;;;;5005793;28;20161;-71
2023/03/13 09:26:31;;;;;;;46.97;8.68;;;;;;;;;;5006661;28;20940;-71
2023/03/13 09:28:58;;;;;;;46.92;8.93;;;;;;;;;;5004420;28;20105;-71
2023/03/13 09:31:31;;;;;;;45.55;8.93;;;;;;;;;;5007629;28;20083;-73
2023/03/13 09:33:58;;;;;;;44.00;9.20;;;;;;;;;;5005910;28;20060;-72
2023/03/13 09:36:26;;;;;;;49.92;8.77;;;;;;;;;;4983847;28;20153;-73
2023/03/13 09:38:53;;;;;;;49.75;9.18;;;;;;;;;;4997376;28;20061;-72
2023/03/13 09:41:37;;;;;;;51.58;9.52;;;;;;;;;;5002548;28;20037;-71
2023/03/13 09:44:25;;;;;;;51.83;9.25;;;;;;;;;;5014982;28;20106;-71
2023/03/13 09:47:01;;;;;;;42.80;8.70;;;;;;;;;;5013210;28;20099;-71
2023/03/13 09:49:39;;;;;;;49.67;8.43;;;;;;;;;;5006650;28;20406;-72
2023/03/13 09:52:15;;;;;;;41.45;8.35;;;;;;;;;;5005717;28;20060;-68
2023/03/13 09:54:57;;;;;;;41.60;7.78;;;;;;;;;;5005747;28;20033;-70
2023/03/13 09:57:34;;;;;;;53.80;9.05;;;;;;;;;;4997927;28;20030;-71
2023/03/13 10:00:11;;;;;;;47.95;9.23;;;;;;;;;;4999700;28;20026;-71
2023/03/13 10:02:38;;;;;;;52.92;9.07;;;;;;;;;;5015771;28;20451;-69
2023/03/13 10:05:04;;;;;;;41.22;7.32;;;;;;;;;;4984125;28;20672;-71
2023/03/13 10:07:30;;;;;;;52.97;9.25;;;;;;;;;;4997027;28;20033;-72
2023/03/13 10:09:57;;;;;;;49.53;8.95;;;;;;;;;;5001620;28;20128;-72
2023/03/13 10:12:26;;;;;;;42.92;8.05;;;;;;;;;;5033640;28;20026;-72
2023/03/13 10:15:10;;;;;;;42.15;7.55;;;;;;;;;;5003548;28;20053;-72
2023/03/13 10:17:37;;;;;;;36.97;6.80;;;;;;;;;;5035797;28;20043;-70
2023/03/13 10:20:22;;;;;;;44.45;8.02;;;;;;;;;;5002489;28;20423;-70
2023/03/13 10:22:51;;;;;;;39.92;6.47;;;;;;;;;;5001095;28;20022;-69
2023/03/13 10:25:28;;;;;;;31.77;6.72;;;;;;;;;;5001552;28;20030;-75
2023/03/13 10:27:54;;;;;;;38.45;6.68;;;;;;;;;;4992501;28;20053;-71
2023/03/13 10:30:22;;;;;;;32.42;5.60;;;;;;;;;;4998980;28;20109;-71
2023/03/13 10:32:52;;;;;;;32.60;5.88;;;;;;;;;;4994893;28;20056;-69
2023/03/13 10:35:29;;;;;;;27.65;5.93;;;;;;;;;;4985862;28;20045;-69
2023/03/13 10:38:10;;;;;;;34.92;6.60;;;;;;;;;;4979416;28;20064;-70
2023/03/13 10:40:38;;;;;;;33.17;6.25;;;;;;;;;;5018756;28;20444;-69
2023/03/13 10:43:11;;;;;;;34.75;6.38;;;;;;;;;;5013635;28;20322;-72
2023/03/13 10:45:36;;;;;;;36.85;7.32;;;;;;;;;;5019995;28;20049;-72
2023/03/13 10:48:13;;;;;;;38.70;7.40;;;;;;;;;;5008257;28;20084;-71
2023/03/13 10:50:49;;;;;;;38.45;7.43;;;;;;;;;;4996870;28;20107;-70
2023/03/13 10:53:19;;;;;;;42.13;7.88;;;;;;;;;;4996730;28;20034;-72
2023/03/13 10:55:45;;;;;;;49.53;9.27;;;;;;;;;;4993345;28;20042;-68
2023/03/13 10:58:17;;;;;;;45.13;8.98;;;;;;;;;;5001279;28;20494;-69
2023/03/13 11:00:42;;;;;;;47.65;7.68;;;;;;;;;;4995860;28;20517;-69
2023/03/13 11:03:17;;;;;;;41.10;7.88;;;;;;;;;;4991296;28;20034;-67
2023/03/13 11:05:43;;;;;;;41.03;8.18;;;;;;;;;;4996000;28;20045;-68
2023/03/13 11:08:15;;;;;;;35.65;7.43;;;;;;;;;;5032799;28;20483;-69
2023/03/13 11:10:50;;;;;;;47.95;8.20;;;;;;;;;;5004633;28;20514;-70
2023/03/13 11:13:28;;;;;;;40.15;7.90;;;;;;;;;;5002179;28;20091;-68
2023/03/13 11:15:56;;;;;;;43.33;8.52;;;;;;;;;;4995799;28;20041;-69
2023/03/13 11:18:32;;;;;;;44.50;8.95;;;;;;;;;;5005313;28;20045;-69
2023/03/13 11:21:00;;;;;;;43.28;8.20;;;;;;;;;;5000878;28;20033;-68
2023/03/13 11:23:44;;;;;;;48.25;8.75;;;;;;;;;;5013955;28;20129;-70
2023/03/13 11:26:12;;;;;;;50.15;9.70;;;;;;;;;;4999149;28;20136;-68
2023/03/13 11:28:58;;;;;;;47.28;9.27;;;;;;;;;;5001907;28;20037;-68
2023/03/13 11:31:28;;;;;;;45.00;9.02;;;;;;;;;;5030986;28;20072;-69
2023/03/13 11:34:00;;;;;;;48.35;9.40;;;;;;;;;;5000978;28;20060;-69
2023/03/13 11:36:26;;;;;;;50.85;9.45;;;;;;;;;;5006088;28;20468;-67
2023/03/13 11:38:53;;;;;;;48.10;8.63;;;;;;;;;;5009411;28;20566;-68
2023/03/13 11:41:25;;;;;;;48.90;8.68;;;;;;;;;;4999903;28;20088;-67
2023/03/13 11:43:53;;;;;;;43.37;8.43;;;;;;;;;;5000677;28;20042;-69
2023/03/13 11:46:21;;;;;;;56.92;9.43;;;;;;;;;;5003546;28;20295;-67
2023/03/13 11:48:51;;;;;;;49.13;9.35;;;;;;;;;;5007221;28;20117;-69
2023/03/13 11:51:25;;;;;;;40.60;8.52;;;;;;;;;;5003622;28;20042;-67
2023/03/13 11:53:51;;;;;;;42.20;8.35;;;;;;;;;;5002532;28;20026;-69
2023/03/13 11:56:16;;;;;;;46.60;8.65;;;;;;;;;;5009339;28;20062;-67
2023/03/13 11:58:53;;;;;;;44.72;9.25;;;;;;;;;;5010467;28;20045;-67
2023/03/13 12:01:40;;;;;;;39.83;7.57;;;;;;;;;;5016752;28;20513;-68
2023/03/13 12:04:16;;;;;;;47.60;8.27;;;;;;;;;;5007517;28;20033;-69
2023/03/13 12:06:56;;;;;;;41.80;7.82;;;;;;;;;;5014131;28;20429;-68
2023/03/13 12:09:32;;;;;;;50.85;9.40;;;;;;;;;;5008012;28;20033;-70
2023/03/13 12:12:10;;;;;;;54.22;9.45;;;;;;;;;;5015832;28;20073;-69
2023/03/13 12:14:38;;;;;;;53.80;9.00;;;;;;;;;;5016387;28;20041;-71
2023/03/13 12:17:08;;;;;;;47.95;9.68;;;;;;;;;;5007083;28;20239;-69
2023/03/13 12:19:33;;;;;;;49.10;8.63;;;;;;;;;;5009152;28;20088;-68
2023/03/13 12:22:27;;;;;;;54.15;9.85;;;;;;;;;;5015130;28;20030;-68
2023/03/13 12:25:09;;;;;;;47.33;9.13;;;;;;;;;;5006519;28;20045;-70
2023/03/13 12:27:41;;;;;;;54.90;9.00;;;;;;;;;;4998850;28;20097;-69
2023/03/13 12:30:06;;;;;;;60.45;10.50;;;;;;;;;;5021043;28;20025;-70
2023/03/13 12:32:40;;;;;;;51.78;9.75;;;;;;;;;;4996970;28;20556;-72
2023/03/13 12:35:11;;;;;;;51.50;10.25;;;;;;;;;;4983146;28;20038;-69
2023/03/13 12:37:51;;;;;;;42.42;9.25;;;;;;;;;;4981414;28;20042;-71
2023/03/13 12:40:24;;;;;;;48.58;9.98;;;;;;;;;;5033403;28;20056;-68
2023/03/13 12:42:54;;;;;;;49.92;9.25;;;;;;;;;;5007495;28;20076;-66
2023/03/13 12:45:20;;;;;;;45.28;9.10;;;;;;;;;;5013725;28;20042;-64
2023/03/13 12:48:03;;;;;;;55.53;10.20;;;;;;;;;;4998836;28;20088;-72
2023/03/13 12:50:28;;;;;;;49.55;9.70;;;;;;;;;;5008615;28;20038;-70
2023/03/13 12:52:59;;;;;;;47.15;9.25;;;;;;;;;;4987358;28;20042;-72
2023/03/13 12:55:43;;;;;;;50.95;9.18;;;;;;;;;;4998503;28;20065;-75
2023/03/13 12:58:14;;;;;;;53.17;9.98;;;;;;;;;;5013042;28;20138;-75
2023/03/13 13:00:41;;;;;;;53.07;9.17;;;;;;;;;;5003479;28;20145;-68
2023/03/13 13:03:07;;;;;;;56.70;9.77;;;;;;;;;;5019817;28;20033;-70
2023/03/13 13:05:32;;;;;;;45.80;9.43;;;;;;;;;;5024568;28;20044;-67
2023/03/13 13:07:57;;;;;;;56.47;9.13;;;;;;;;;;5023541;28;20056;-68
2023/03/13 13:10:25;;;;;;;54.78;9.55;;;;;;;;;;5004300;28;21284;-67
2023/03/13 13:13:09;;;;;;;50.72;10.25;;;;;;;;;;5012032;28;20041;-69
2023/03/13 13:15:35;;;;;;;57.08;10.15;;;;;;;;;;5005541;28;20034;-69
2023/03/13 13:18:04;;;;;;;55.72;9.88;;;;;;;;;;5002839;28;20049;-70
2023/03/13 13:20:37;;;;;;;55.50;10.15;;;;;;;;;;5007218;28;20113;-70
2023/03/13 13:23:23;;;;;;;58.63;11.18;;;;;;;;;;5016467;28;20125;-68
2023/03/13 13:25:49;;;;;;;53.80;9.90;;;;;;;;;;5013414;28;20060;-69
2023/03/13 13:28:18;;;;;;;54.65;9.38;;;;;;;;;;5007452;28;20055;-68
2023/03/13 13:30:43;;;;;;;50.95;10.35;;;;;;;;;;5018907;28;20067;-68
2023/03/13 13:33:18;;;;;;;53.60;9.45;;;;;;;;;;5044679;28;20033;-69
2023/03/13 13:35:44;;;;;;;60.53;10.27;;;;;;;;;;5013215;28;20045;-68
2023/03/13 13:38:19;;;;;;;59.90;10.30;;;;;;;;;;5010487;28;20068;-69
2023/03/13 13:40:57;;;;;;;65.10;10.98;;;;;;;;;;5010714;28;20040;-68
2023/03/13 13:43:25;;;;;;;55.95;10.80;;;;;;;;;;5005335;28;20670;-69
2023/03/13 13:46:13;;;;;;;61.35;10.98;;;;;;;;;;5008751;28;20029;-67
2023/03/13 13:48:43;;;;;;;59.33;10.48;;;;;;;;;;4998506;28;20164;-67
2023/03/13 13:51:12;;;;;;;59.55;11.52;;;;;;;;;;5005005;28;20072;-68
2023/03/13 13:53:41;;;;;;;52.30;10.30;;;;;;;;;;5008999;28;20084;-67
2023/03/13 13:56:26;;;;;;;67.85;11.02;;;;;;;;;;4990868;28;20026;-68
2023/03/13 13:58:54;;;;;;;70.68;11.48;;;;;;;;;;5011595;28;20494;-67
2023/03/13 14:01:22;;;;;;;58.55;9.77;;;;;;;;;;5005434;28;20092;-68
2023/03/13 14:03:49;;;;;;;60.65;11.48;;;;;;;;;;5026478;28;20040;-68
2023/03/13 14:06:23;;;;;;;62.13;9.75;;;;;;;;;;5024169;28;20041;-68
2023/03/13 14:08:52;;;;;;;72.50;11.75;;;;;;;;;;5020565;28;20030;-68
2023/03/13 14:11:31;;;;;;;60.20;10.20;;;;;;;;;;5010012;28;20447;-66
2023/03/13 14:14:15;;;;;;;52.50;9.15;;;;;;;;;;4980394;28;20105;-68
2023/03/13 14:16:47;;;;;;;52.72;10.25;;;;;;;;;;4999078;28;20118;-69
2023/03/13 14:19:23;;;;;;;57.13;10.55;;;;;;;;;;5010343;28;20049;-69
2023/03/13 14:21:56;;;;;;;66.00;10.75;;;;;;;;;;5000194;28;20126;-69
2023/03/13 14:24:21;;;;;;;69.22;10.75;;;;;;;;;;4996614;28;20041;-67
2023/03/13 14:26:49;;;;;;;67.63;10.85;;;;;;;;;;4988692;28;20149;-68
2023/03/13 14:29:16;;;;;;;57.58;9.52;;;;;;;;;;4987704;28;20030;-70
2023/03/13 14:31:48;;;;;;;63.28;10.60;;;;;;;;;;4986378;28;20049;-66